Time;durP1;ratioP1;P1;durP2;ratioP2;P2;SDS_P1;SDS_P2;PMS_P1;PMS_P2;Temp;Humidity;BMP_temperature;BMP_pressure;BME280_temperature;BME280_humidity;BME280_pressure;Samples;Min_cycle;Max_cycle;Signal;HPM_P1;HPM_P2
2022/08/10 00:04:06;;;;;;;4.15;3.13;;;13.50;99.90;;;;;;8398151;28;20027;-79
2022/08/10 00:08:06;;;;;;;4.78;3.13;;;13.30;99.90;;;;;;8398897;28;20377;-80
2022/08/10 00:12:07;;;;;;;6.05;3.17;;;13.30;99.90;;;;;;8404791;28;20072;-79
2022/08/10 00:16:08;;;;;;;3.75;2.90;;;13.30;99.90;;;;;;8403158;28;20017;-79
2022/08/10 00:20:10;;;;;;;5.30;2.97;;;13.30;99.90;;;;;;8398008;28;20043;-79
2022/08/10 00:24:10;;;;;;;5.05;3.00;;;13.30;99.90;;;;;;8394830;28;20020;-79
2022/08/10 00:28:11;;;;;;;5.45;3.00;;;13.20;99.90;;;;;;8394926;28;20446;-79
2022/08/10 00:32:11;;;;;;;3.50;3.20;;;13.10;99.90;;;;;;8397763;28;20040;-79
2022/08/10 00:36:13;;;;;;;4.22;3.33;;;13.10;99.90;;;;;;8395954;28;20013;-79
2022/08/10 00:40:13;;;;;;;3.92;3.53;;;12.90;99.90;;;;;;8396491;28;20059;-79
2022/08/10 00:44:14;;;;;;;4.15;3.75;;;12.60;99.90;;;;;;8397028;28;20054;-79
2022/08/10 00:48:14;;;;;;;4.10;3.70;;;12.50;99.90;;;;;;8396149;28;20028;-79
2022/08/10 00:52:18;;;;;;;5.05;3.47;;;12.40;99.90;;;;;;8395905;28;20024;-79
2022/08/10 00:56:19;;;;;;;4.75;4.00;;;12.40;99.90;;;;;;8405976;28;20022;-79
2022/08/10 01:00:19;;;;;;;5.10;3.92;;;12.40;99.90;;;;;;8397736;28;20174;-79
2022/08/10 01:04:20;;;;;;;5.38;4.00;;;12.40;99.90;;;;;;8396129;28;20029;-79
2022/08/10 01:08:45;;;;;;;4.90;3.85;;;12.30;99.90;;;;;;8389267;28;20024;-79
2022/08/10 01:12:50;;;;;;;7.38;4.30;;;12.30;99.90;;;;;;8396310;28;20178;-79
2022/08/10 01:17:02;;;;;;;4.43;4.03;;;12.10;99.90;;;;;;8397081;28;20024;-79
2022/08/10 01:21:20;;;;;;;4.50;4.10;;;11.90;99.90;;;;;;8397530;28;20036;-79
2022/08/10 01:25:48;;;;;;;5.45;4.38;;;11.90;99.90;;;;;;8390218;28;20024;-78
2022/08/10 01:29:51;;;;;;;9.52;4.40;;;12.00;99.90;;;;;;8395104;28;20017;-79
2022/08/10 01:33:56;;;;;;;8.30;4.70;;;12.00;99.90;;;;;;8396798;28;20377;-79
2022/08/10 01:38:15;;;;;;;5.30;4.13;;;11.90;99.90;;;;;;8393818;28;20474;-79
2022/08/10 01:42:18;;;;;;;4.55;4.15;;;11.90;99.90;;;;;;8395792;28;20035;-79
2022/08/10 01:46:22;;;;;;;5.85;4.22;;;12.00;99.90;;;;;;8396525;28;20085;-79
2022/08/10 01:50:36;;;;;;;4.78;4.28;;;12.00;99.90;;;;;;8394373;28;20028;-79
2022/08/10 01:54:40;;;;;;;5.25;4.40;;;11.80;99.90;;;;;;8391300;28;20020;-78
2022/08/10 01:58:42;;;;;;;7.78;4.18;;;11.70;99.90;;;;;;8404643;28;20045;-79
2022/08/10 02:02:45;;;;;;;5.05;4.55;;;11.70;99.90;;;;;;8401881;28;20433;-79
2022/08/10 02:06:51;;;;;;;4.88;4.38;;;11.60;99.90;;;;;;8398758;28;20408;-78
2022/08/10 02:10:53;;;;;;;5.65;5.07;;;11.40;99.90;;;;;;8400102;28;20016;-79
2022/08/10 02:15:04;;;;;;;5.22;4.72;;;11.30;99.90;;;;;;8399788;28;20013;-78
2022/08/10 02:19:06;;;;;;;6.47;5.07;;;11.30;99.90;;;;;;8399873;28;20031;-79
2022/08/10 02:23:16;;;;;;;5.57;4.90;;;11.40;99.90;;;;;;8398113;28;20072;-79
2022/08/10 02:27:21;;;;;;;5.35;4.78;;;11.40;99.90;;;;;;8400711;28;20486;-78
2022/08/10 02:31:24;;;;;;;5.78;5.07;;;11.50;99.90;;;;;;8395046;28;20074;-78
2022/08/10 02:35:27;;;;;;;5.15;4.68;;;11.60;99.90;;;;;;8399814;28;20032;-79
2022/08/10 02:39:30;;;;;;;5.38;4.75;;;11.60;99.90;;;;;;8400336;28;20028;-79
2022/08/10 02:43:37;;;;;;;5.13;4.63;;;11.70;99.90;;;;;;8405934;28;20024;-79
2022/08/10 02:47:51;;;;;;;5.10;4.45;;;11.70;99.90;;;;;;8400160;28;20372;-78
2022/08/10 02:52:13;;;;;;;5.65;5.05;;;11.80;99.90;;;;;;8414714;22;20107;-78
2022/08/10 02:56:38;;;;;;;4.68;4.28;;;11.70;99.90;;;;;;8376864;28;20021;-78
2022/08/10 03:00:48;;;;;;;5.35;4.63;;;11.70;99.90;;;;;;8358295;28;20074;-80
2022/08/10 03:04:53;;;;;;;6.30;5.07;;;11.70;99.90;;;;;;8366365;28;20044;-80
2022/08/10 03:08:55;;;;;;;6.22;4.95;;;11.60;99.90;;;;;;8373869;28;20041;-80
2022/08/10 03:12:59;;;;;;;6.28;5.32;;;11.60;99.90;;;;;;8366932;28;20019;-80
2022/08/10 03:17:01;;;;;;;6.88;5.13;;;11.60;99.90;;;;;;8368574;28;20025;-79
2022/08/10 03:21:03;;;;;;;5.50;4.68;;;11.50;99.90;;;;;;8372916;28;20033;-80
2022/08/10 03:25:06;;;;;;;7.65;5.53;;;11.60;99.90;;;;;;8366661;28;20488;-80
2022/08/10 03:29:08;;;;;;;9.18;5.22;;;11.60;99.90;;;;;;8365957;28;20515;-80
2022/08/10 03:33:10;;;;;;;6.50;4.78;;;11.50;99.90;;;;;;8366052;28;20489;-80
2022/08/10 03:37:10;;;;;;;6.93;5.80;;;11.50;99.90;;;;;;8384347;28;20052;-80
2022/08/10 03:41:14;;;;;;;7.25;5.35;;;11.50;99.90;;;;;;8370698;28;20025;-80
2022/08/10 03:45:16;;;;;;;6.30;5.35;;;11.50;99.90;;;;;;8369121;28;20033;-80
2022/08/10 03:49:18;;;;;;;6.22;5.40;;;11.40;99.90;;;;;;8369460;28;20404;-80
2022/08/10 03:53:19;;;;;;;6.35;5.15;;;11.40;99.90;;;;;;8363953;28;20079;-80
2022/08/10 03:57:21;;;;;;;5.78;5.13;;;11.40;99.90;;;;;;8375040;28;20032;-80
2022/08/10 04:01:22;;;;;;;7.30;5.47;;;11.40;99.90;;;;;;8375749;28;20493;-79
2022/08/10 04:05:23;;;;;;;9.55;5.05;;;11.40;99.90;;;;;;8366212;28;20029;-80
2022/08/10 04:09:31;;;;;;;6.30;5.25;;;11.50;99.90;;;;;;8377771;28;20068;-79
2022/08/10 04:13:31;;;;;;;6.25;5.07;;;11.40;99.90;;;;;;8371748;28;20476;-79
2022/08/10 04:17:32;;;;;;;7.63;5.30;;;11.30;99.90;;;;;;8373368;28;20028;-80
2022/08/10 04:21:38;;;;;;;8.25;5.07;;;11.40;99.90;;;;;;8365269;28;20048;-80
2022/08/10 04:25:39;;;;;;;6.38;5.18;;;11.30;99.90;;;;;;8369358;28;20020;-80
2022/08/10 04:29:41;;;;;;;6.78;5.13;;;11.30;99.90;;;;;;8370080;28;20017;-79
2022/08/10 04:33:46;;;;;;;5.57;5.07;;;11.40;99.90;;;;;;8363412;28;20017;-79
2022/08/10 04:37:48;;;;;;;6.28;4.70;;;11.50;99.90;;;;;;8363914;28;20048;-79
2022/08/10 04:41:49;;;;;;;5.85;4.75;;;11.70;99.90;;;;;;8364458;28;20082;-80
2022/08/10 04:45:49;;;;;;;8.40;4.68;;;11.90;99.90;;;;;;8368712;28;20048;-80
2022/08/10 04:49:50;;;;;;;5.47;4.68;;;12.10;99.90;;;;;;8372883;28;20025;-79
2022/08/10 04:53:51;;;;;;;6.15;4.55;;;12.60;99.90;;;;;;8373959;28;20094;-80
2022/08/10 04:57:51;;;;;;;7.63;5.50;;;12.30;99.90;;;;;;8378539;28;20025;-79
2022/08/10 05:01:52;;;;;;;6.63;4.63;;;12.30;99.90;;;;;;8367964;28;20052;-79
2022/08/10 05:05:53;;;;;;;5.57;5.00;;;12.40;99.90;;;;;;8375519;28;20021;-80
2022/08/10 05:09:53;;;;;;;6.40;4.78;;;12.50;99.90;;;;;;8375358;28;20040;-80
2022/08/10 05:13:54;;;;;;;7.40;4.57;;;12.60;99.90;;;;;;8363602;28;20045;-80
2022/08/10 05:17:54;;;;;;;5.10;4.60;;;12.80;99.90;;;;;;8362918;28;20049;-80
2022/08/10 05:21:55;;;;;;;4.95;4.50;;;12.90;99.90;;;;;;8377284;28;20166;-80
2022/08/10 05:25:55;;;;;;;5.82;4.90;;;13.40;99.90;;;;;;8371669;28;20118;-79
2022/08/10 05:29:56;;;;;;;5.53;4.20;;;13.50;99.90;;;;;;8386883;28;20380;-79
2022/08/10 05:33:56;;;;;;;7.40;4.68;;;13.90;99.90;;;;;;8362725;28;20016;-80
2022/08/10 05:37:58;;;;;;;5.97;4.10;;;14.10;99.90;;;;;;8379407;28;20487;-80
2022/08/10 05:42:00;;;;;;;5.78;3.55;;;14.60;99.90;;;;;;8364278;28;20021;-80
2022/08/10 05:46:00;;;;;;;3.97;3.55;;;14.90;99.90;;;;;;8376759;28;20490;-79
2022/08/10 05:50:01;;;;;;;3.78;3.30;;;15.10;99.90;;;;;;8366008;28;20021;-80
2022/08/10 05:54:02;;;;;;;4.65;3.53;;;15.20;99.90;;;;;;8366968;28;20032;-80
2022/08/10 05:58:03;;;;;;;6.57;3.03;;;15.80;99.90;;;;;;8373298;28;20090;-79
2022/08/10 06:02:04;;;;;;;3.97;2.70;;;16.80;99.90;;;;;;8367880;28;20025;-80
2022/08/10 06:06:07;;;;;;;4.28;2.70;;;17.60;99.90;;;;;;8365961;28;20108;-80
2022/08/10 06:10:11;;;;;;;2.85;2.58;;;18.50;99.90;;;;;;8374417;28;20025;-80
2022/08/10 06:18:35;;;;;;;6.07;2.65;;;19.30;99.90;;;;;;8363373;28;20044;-80
2022/08/10 06:22:36;;;;;;;3.33;2.20;;;19.40;99.90;;;;;;8363923;28;20051;-80
2022/08/10 06:26:37;;;;;;;5.80;2.58;;;19.90;99.90;;;;;;8361465;28;20021;-81
2022/08/10 06:30:39;;;;;;;2.42;2.08;;;20.60;99.90;;;;;;8363378;28;20021;-81
2022/08/10 06:34:46;;;;;;;4.40;2.45;;;21.00;99.90;;;;;;8367910;28;20020;-80
2022/08/10 06:38:49;;;;;;;2.45;2.22;;;21.70;99.90;;;;;;8357213;28;20339;-79
2022/08/10 06:42:51;;;;;;;2.60;2.20;;;21.50;99.90;;;;;;8361813;28;20060;-78
2022/08/10 06:46:54;;;;;;;5.53;2.22;;;21.40;99.90;;;;;;8359740;28;20036;-79
2022/08/10 06:51:13;;;;;;;3.78;2.22;;;21.80;99.90;;;;;;8363672;28;20014;-79
2022/08/10 06:55:14;;;;;;;2.42;1.95;;;22.50;99.90;;;;;;8374852;28;20123;-79
2022/08/10 06:59:37;;;;;;;3.53;2.00;;;22.80;99.90;;;;;;8378374;28;20025;-79
2022/08/10 07:03:44;;;;;;;4.35;2.28;;;22.30;99.90;;;;;;8373010;28;20025;-79
2022/08/10 07:07:46;;;;;;;3.15;2.28;;;22.30;99.90;;;;;;8371013;28;20025;-79
2022/08/10 07:11:49;;;;;;;2.88;2.00;;;22.40;99.90;;;;;;8379655;28;20020;-78
2022/08/10 07:15:50;;;;;;;4.32;2.28;;;22.20;99.90;;;;;;8367842;28;20028;-79
2022/08/10 07:19:56;;;;;;;2.65;2.05;;;22.10;99.90;;;;;;8388628;28;20020;-79
2022/08/10 07:23:58;;;;;;;4.57;2.65;;;22.80;99.90;;;;;;8370778;28;20032;-79
2022/08/10 07:28:01;;;;;;;2.08;1.70;;;23.10;99.90;;;;;;8362801;28;20024;-79
2022/08/10 07:32:04;;;;;;;2.40;2.20;;;23.10;99.90;;;;;;8381608;28;20480;-79
2022/08/10 07:36:05;;;;;;;2.35;1.75;;;22.90;99.90;;;;;;8384493;28;20391;-79
2022/08/10 07:40:08;;;;;;;3.10;2.20;;;23.30;99.90;;;;;;8371994;28;20025;-79
2022/08/10 07:44:11;;;;;;;2.55;1.80;;;23.90;99.90;;;;;;8371849;28;20025;-79
2022/08/10 07:48:25;;;;;;;3.72;1.95;;;23.80;99.90;;;;;;8369193;28;20021;-79
2022/08/10 07:52:27;;;;;;;2.05;1.77;;;23.70;99.90;;;;;;8375570;28;20047;-79
2022/08/10 07:56:30;;;;;;;2.75;1.88;;;23.90;99.90;;;;;;8374446;28;20546;-78
2022/08/10 08:00:32;;;;;;;3.63;1.60;;;23.90;99.90;;;;;;8382978;28;20040;-79
2022/08/10 08:04:33;;;;;;;3.65;1.90;;;24.60;99.90;;;;;;8392398;28;20024;-79
2022/08/10 08:08:36;;;;;;;4.22;1.67;;;24.40;99.90;;;;;;8364912;28;20033;-79
2022/08/10 08:12:39;;;;;;;5.50;1.80;;;24.70;98.20;;;;;;8366137;28;20027;-79
2022/08/10 08:16:44;;;;;;;4.00;1.52;;;24.90;99.50;;;;;;8363931;28;20041;-79
2022/08/10 08:20:45;;;;;;;2.97;1.67;;;24.90;98.00;;;;;;8380873;28;20015;-77
2022/08/10 08:24:46;;;;;;;2.20;1.70;;;24.60;97.60;;;;;;8371860;28;20052;-79
2022/08/10 08:28:49;;;;;;;3.83;1.70;;;24.10;98.70;;;;;;8366579;28;20108;-79
2022/08/10 08:32:51;;;;;;;2.83;1.73;;;24.60;96.70;;;;;;8370049;28;20021;-79
2022/08/10 08:36:53;;;;;;;3.70;1.70;;;24.80;98.70;;;;;;8367533;28;20067;-79
2022/08/10 08:41:27;;;;;;;2.00;1.73;;;25.00;95.50;;;;;;8374585;28;20028;-79
2022/08/10 08:46:00;;;;;;;4.00;1.48;;;24.70;99.10;;;;;;8335307;28;20036;-78
2022/08/10 08:50:50;;;;;;;4.25;1.67;;;24.60;95.70;;;;;;8375968;28;20409;-78
2022/08/10 08:55:28;;;;;;;4.78;1.55;;;24.30;96.60;;;;;;8309742;28;20036;-79
2022/08/10 08:59:53;;;;;;;1.80;1.30;;;24.80;95.30;;;;;;8373735;28;20027;-79
2022/08/10 09:04:03;;;;;;;2.40;0.98;;;25.10;98.20;;;;;;8370354;28;20043;-78
2022/08/10 09:08:21;;;;;;;4.10;1.40;;;25.10;93.50;;;;;;8378951;28;20020;-79
2022/08/10 09:12:48;;;;;;;3.20;1.55;;;24.40;93.60;;;;;;8374167;28;20024;-79
2022/08/10 09:17:04;;;;;;;5.25;1.48;;;24.40;94.70;;;;;;8370382;28;20025;-78
2022/08/10 09:21:46;;;;;;;4.90;1.70;;;24.30;93.50;;;;;;8373163;28;20143;-79
2022/08/10 09:26:00;;;;;;;2.97;1.80;;;24.60;94.00;;;;;;8363221;28;20017;-79
2022/08/10 09:30:06;;;;;;;1.50;1.40;;;24.80;94.70;;;;;;8364190;28;20040;-79
2022/08/10 09:34:22;;;;;;;5.65;1.73;;;24.70;91.80;;;;;;8364850;28;20021;-79
2022/08/10 09:38:56;;;;;;;3.85;1.13;;;24.80;90.20;;;;;;8362289;28;20029;-79
2022/08/10 09:43:29;;;;;;;1.95;1.30;;;24.60;86.30;;;;;;8362822;28;20103;-79
2022/08/10 09:47:36;;;;;;;2.17;1.42;;;24.80;90.70;;;;;;8367231;28;20178;-79
2022/08/10 09:52:14;;;;;;;4.72;1.25;;;25.30;89.60;;;;;;8367281;28;20059;-79
2022/08/10 09:56:31;;;;;;;4.75;1.50;;;25.40;86.80;;;;;;8372138;28;20111;-79
2022/08/10 10:00:38;;;;;;;1.73;1.33;;;25.60;88.20;;;;;;8367667;28;20040;-80
2022/08/10 10:04:58;;;;;;;2.78;1.40;;;25.70;90.30;;;;;;8371120;28;20024;-80
2022/08/10 10:09:08;;;;;;;2.42;1.30;;;26.10;86.40;;;;;;8365890;28;20200;-78
2022/08/10 10:13:13;;;;;;;;;;;26.00;82.30;;;;;;8366785;28;20480;-79
2022/08/10 10:17:25;;;;;;;1.60;1.15;;;25.40;80.10;;;;;;8366481;28;19997;-80
2022/08/10 10:21:47;;;;;;;1.65;1.30;;;25.40;86.80;;;;;;8373712;28;20037;-80
2022/08/10 10:26:15;;;;;;;2.30;0.85;;;25.80;84.70;;;;;;8365273;28;20028;-79
2022/08/10 10:30:18;;;;;;;3.42;1.15;;;25.20;77.60;;;;;;8382757;28;20048;-80
2022/08/10 10:34:50;;;;;;;1.25;1.13;;;25.10;81.30;;;;;;8373731;28;20107;-81
2022/08/10 10:38:53;;;;;;;2.85;1.10;;;25.10;78.20;;;;;;8377627;28;20050;-81
2022/08/10 10:42:53;;;;;;;3.40;1.40;;;25.50;75.30;;;;;;8373146;28;20281;-81
2022/08/10 10:47:24;;;;;;;2.30;1.25;;;25.60;75.70;;;;;;8367567;28;20029;-80
2022/08/10 10:52:20;;;;;;;3.63;1.27;;;26.70;71.80;;;;;;8375484;28;20028;-81
2022/08/10 10:56:32;;;;;;;3.08;1.40;;;26.90;72.50;;;;;;8366489;28;20064;-79
2022/08/10 11:00:52;;;;;;;1.27;1.10;;;27.40;72.70;;;;;;8366359;28;20047;-79
2022/08/10 11:05:12;;;;;;;4.63;1.35;;;27.80;67.60;;;;;;8362497;28;20048;-79
2022/08/10 11:09:30;;;;;;;3.95;1.40;;;28.50;68.90;;;;;;8376506;28;20496;-80
2022/08/10 11:13:41;;;;;;;2.58;0.73;;;29.10;70.00;;;;;;8377165;28;20016;-78
2022/08/10 11:17:47;;;;;;;;;;;28.00;66.70;;;;;;8373605;28;20033;-79
2022/08/10 11:22:08;;;;;;;3.47;1.27;;;27.50;69.60;;;;;;8381347;28;19905;-79
2022/08/10 11:26:08;;;;;;;;;;;27.70;69.70;;;;;;8363872;28;20021;-78
2022/08/10 11:30:17;;;;;;;3.03;1.30;;;27.10;69.80;;;;;;8372388;28;19908;-79
2022/08/10 11:34:31;;;;;;;2.95;1.38;;;27.90;71.70;;;;;;8369783;28;20790;-79
2022/08/10 11:38:53;;;;;;;3.33;1.20;;;29.50;62.60;;;;;;8369981;28;20497;-80
2022/08/10 11:43:07;;;;;;;1.50;1.17;;;29.80;62.50;;;;;;8369542;28;20055;-79
2022/08/10 11:47:18;;;;;;;2.30;1.17;;;29.10;64.00;;;;;;8368204;28;20029;-79
2022/08/10 11:51:25;;;;;;;2.47;1.00;;;29.30;59.30;;;;;;8381338;28;20483;-79
2022/08/10 11:55:30;;;;;;;4.25;1.33;;;29.40;58.20;;;;;;8377979;28;20107;-79
2022/08/10 12:03:54;;;;;;;1.17;1.08;;;29.80;62.00;;;;;;8378942;28;20553;-79
2022/08/10 12:07:57;;;;;;;2.10;1.20;;;29.80;58.60;;;;;;8375519;28;20025;-79
2022/08/10 12:11:59;;;;;;;2.00;1.35;;;29.80;58.70;;;;;;8373455;28;20044;-79
2022/08/10 12:16:04;;;;;;;1.60;1.10;;;29.40;62.20;;;;;;8372615;28;20140;-79
2022/08/10 12:20:09;;;;;;;3.42;1.40;;;29.20;60.20;;;;;;8376179;28;20051;-79
2022/08/10 12:24:22;;;;;;;2.45;1.10;;;30.10;57.90;;;;;;8376574;28;20036;-79
2022/08/10 12:28:44;;;;;;;2.15;1.00;;;30.10;57.70;;;;;;8372331;28;20468;-79
2022/08/10 12:32:58;;;;;;;2.08;1.20;;;30.30;57.30;;;;;;8376427;28;20029;-78
2022/08/10 12:37:24;;;;;;;1.25;1.00;;;29.40;58.80;;;;;;8371897;28;20095;-79
2022/08/10 12:42:05;;;;;;;2.60;1.20;;;30.00;57.30;;;;;;8381292;28;20041;-79
2022/08/10 12:46:13;;;;;;;3.10;1.63;;;31.20;55.10;;;;;;8325055;28;20025;-79
2022/08/10 12:50:42;;;;;;;3.30;1.52;;;30.50;54.30;;;;;;8371165;28;20025;-80
2022/08/10 12:54:43;;;;;;;2.30;1.08;;;30.60;52.90;;;;;;8369014;28;20032;-79
2022/08/10 12:58:44;;;;;;;2.05;0.98;;;30.80;52.90;;;;;;8376702;28;20028;-77
2022/08/10 13:02:46;;;;;;;2.35;1.05;;;30.50;51.40;;;;;;8377389;28;20025;-79
2022/08/10 13:06:48;;;;;;;1.65;1.08;;;30.40;57.40;;;;;;8366208;28;20020;-79
2022/08/10 13:11:00;;;;;;;2.03;1.20;;;30.90;53.50;;;;;;8368339;28;20050;-79
2022/08/10 13:15:14;;;;;;;3.00;1.40;;;31.30;55.30;;;;;;8367817;28;20025;-80
2022/08/10 13:19:20;;;;;;;1.83;1.10;;;31.70;52.00;;;;;;8371006;28;20060;-80
2022/08/10 13:23:25;;;;;;;5.32;1.33;;;33.00;52.90;;;;;;8374794;28;20025;-80
2022/08/10 13:27:32;;;;;;;2.33;1.10;;;33.70;49.60;;;;;;8377155;28;20092;-79
2022/08/10 13:31:33;;;;;;;2.20;1.08;;;30.90;54.50;;;;;;8361448;28;20012;-79
2022/08/10 13:35:35;;;;;;;6.45;1.30;;;29.70;55.40;;;;;;8370910;28;20615;-79
2022/08/10 13:39:43;;;;;;;2.75;1.33;;;32.00;54.60;;;;;;8368423;28;20029;-80
2022/08/10 13:43:54;;;;;;;1.25;0.98;;;31.50;54.20;;;;;;8389932;28;20040;-79
2022/08/10 13:48:09;;;;;;;3.08;1.00;;;30.90;53.10;;;;;;8366699;28;20020;-79
2022/08/10 13:52:17;;;;;;;1.65;1.17;;;31.10;49.90;;;;;;8368885;28;20033;-80
2022/08/10 13:56:20;;;;;;;2.83;1.13;;;30.60;55.80;;;;;;8379478;28;20484;-80
2022/08/10 14:00:20;;;;;;;2.15;1.00;;;30.90;51.20;;;;;;8361139;28;20029;-80
2022/08/10 14:04:21;;;;;;;3.88;1.08;;;32.40;49.50;;;;;;8386801;28;20021;-80
2022/08/10 14:08:28;;;;;;;5.03;1.23;;;33.40;47.10;;;;;;8369097;28;20040;-80
2022/08/10 14:12:29;;;;;;;4.50;1.40;;;32.90;49.20;;;;;;8369163;28;20029;-79
2022/08/10 14:16:32;;;;;;;1.75;1.10;;;33.20;45.40;;;;;;8378830;28;20969;-79
2022/08/10 14:20:34;;;;;;;6.78;1.00;;;34.90;46.60;;;;;;8366972;28;20048;-80
2022/08/10 14:24:35;;;;;;;1.73;1.08;;;35.00;46.40;;;;;;8380621;28;20028;-79
2022/08/10 14:28:42;;;;;;;4.55;1.20;;;32.10;48.50;;;;;;8373025;28;20029;-79
2022/08/10 14:32:46;;;;;;;2.03;1.05;;;31.80;48.50;;;;;;8376478;28;20025;-79
2022/08/10 14:36:54;;;;;;;1.60;1.10;;;31.40;47.40;;;;;;8380275;28;20350;-80
2022/08/10 14:40:59;;;;;;;2.17;0.90;;;31.40;48.50;;;;;;8381820;28;20040;-79
2022/08/10 14:45:17;;;;;;;3.03;1.10;;;33.30;42.60;;;;;;8368327;28;20446;-79
2022/08/10 14:49:20;;;;;;;1.88;0.90;;;34.60;42.30;;;;;;8378445;28;20070;-80
2022/08/10 14:53:22;;;;;;;1.98;1.00;;;35.10;41.10;;;;;;8379744;28;20036;-80
2022/08/10 14:57:24;;;;;;;5.00;1.00;;;34.20;42.70;;;;;;8378179;28;20524;-79
2022/08/10 15:01:25;;;;;;;1.60;1.10;;;34.60;42.60;;;;;;8366968;28;20499;-79
2022/08/10 15:05:27;;;;;;;1.90;0.90;;;34.60;43.40;;;;;;8373429;28;20067;-80
2022/08/10 15:09:31;;;;;;;2.28;1.20;;;35.00;45.10;;;;;;8374010;28;20112;-80
2022/08/10 15:13:32;;;;;;;2.10;1.17;;;35.40;42.80;;;;;;8378085;28;20025;-79
2022/08/10 15:17:38;;;;;;;3.30;1.10;;;34.70;43.10;;;;;;8369518;28;20021;-80
2022/08/10 15:21:40;;;;;;;3.45;1.30;;;33.30;45.50;;;;;;8369113;28;20025;-80
2022/08/10 15:25:46;;;;;;;4.68;1.00;;;34.00;45.30;;;;;;8374111;28;20023;-79
2022/08/10 15:29:51;;;;;;;3.50;1.10;;;33.50;45.20;;;;;;8366494;28;20086;-80
2022/08/10 15:38:21;;;;;;;2.47;1.25;;;31.70;48.10;;;;;;8365991;28;20118;-79
2022/08/10 15:42:22;;;;;;;3.35;1.08;;;33.10;46.40;;;;;;8369698;28;20095;-79
2022/08/10 15:46:31;;;;;;;4.18;1.15;;;33.10;45.50;;;;;;8362461;28;20032;-80
2022/08/10 15:50:37;;;;;;;2.08;0.98;;;31.80;48.50;;;;;;8374347;28;20036;-79
2022/08/10 15:54:46;;;;;;;1.58;1.15;;;29.20;49.50;;;;;;8378579;28;20483;-79
2022/08/10 15:58:56;;;;;;;2.63;1.13;;;27.50;51.60;;;;;;8370806;28;20017;-79
2022/08/10 16:03:08;;;;;;;1.77;1.02;;;26.60;54.60;;;;;;8375469;28;20065;-80
2022/08/10 16:07:14;;;;;;;2.67;1.10;;;26.10;54.20;;;;;;8370571;28;20499;-78
2022/08/10 16:11:19;;;;;;;2.17;1.00;;;25.90;54.70;;;;;;8374705;28;20028;-79
2022/08/10 16:15:23;;;;;;;1.52;1.10;;;25.70;56.20;;;;;;8393686;28;20020;-79
2022/08/10 16:19:25;;;;;;;4.90;1.50;;;25.50;56.80;;;;;;8371940;28;20040;-80
2022/08/10 16:23:30;;;;;;;4.03;1.15;;;25.30;55.90;;;;;;8367052;28;20592;-79
2022/08/10 16:27:31;;;;;;;2.03;1.00;;;25.30;55.80;;;;;;8367326;28;20028;-80
2022/08/10 16:31:35;;;;;;;7.45;1.27;;;25.20;56.40;;;;;;8368872;28;20056;-80
2022/08/10 16:35:38;;;;;;;1.50;1.10;;;25.30;56.70;;;;;;8366199;28;20021;-80
2022/08/10 16:39:45;;;;;;;6.80;1.10;;;25.10;56.80;;;;;;8372144;28;20050;-79
2022/08/10 16:43:47;;;;;;;1.75;0.80;;;25.10;56.80;;;;;;8368091;28;20569;-79
2022/08/10 16:47:52;;;;;;;5.03;1.10;;;25.10;54.90;;;;;;8380632;28;20483;-80
2022/08/10 16:51:55;;;;;;;2.30;1.00;;;24.90;55.90;;;;;;8366873;28;20033;-79
2022/08/10 16:56:00;;;;;;;1.52;1.00;;;25.00;55.20;;;;;;8378429;28;20375;-79
2022/08/10 17:00:01;;;;;;;1.73;1.00;;;24.80;56.50;;;;;;8366269;28;20035;-79
2022/08/10 17:04:05;;;;;;;2.53;1.20;;;24.70;56.50;;;;;;8360822;28;20024;-79
2022/08/10 17:08:14;;;;;;;1.88;1.30;;;24.70;56.50;;;;;;8362429;28;20492;-79
2022/08/10 17:12:22;;;;;;;4.30;1.20;;;24.60;58.10;;;;;;8366450;28;20039;-79
2022/08/10 17:16:24;;;;;;;1.75;1.10;;;24.30;58.40;;;;;;8368061;28;20032;-79
2022/08/10 17:20:29;;;;;;;1.45;1.20;;;24.10;59.20;;;;;;8374688;28;20512;-80
2022/08/10 17:24:34;;;;;;;1.52;1.08;;;23.80;59.40;;;;;;8382352;28;20029;-80
2022/08/10 17:28:41;;;;;;;6.07;1.20;;;23.60;60.30;;;;;;8381744;28;20036;-80
2022/08/10 17:32:55;;;;;;;1.90;1.20;;;23.40;60.00;;;;;;8377139;28;20054;-80
2022/08/10 17:37:01;;;;;;;2.78;1.27;;;23.10;62.90;;;;;;8371658;28;20017;-80
2022/08/10 17:41:11;;;;;;;4.88;1.20;;;23.00;63.00;;;;;;8373520;28;20025;-80
2022/08/10 17:45:27;;;;;;;2.17;1.17;;;22.70;64.10;;;;;;8368820;28;20025;-79
2022/08/10 17:49:33;;;;;;;2.40;1.25;;;22.60;63.70;;;;;;8370513;28;20060;-79
2022/08/10 17:53:40;;;;;;;2.33;1.10;;;22.60;63.80;;;;;;8360553;28;20048;-79
2022/08/10 17:57:42;;;;;;;4.10;1.17;;;22.50;64.80;;;;;;8383736;28;20167;-79
2022/08/10 18:01:43;;;;;;;1.88;1.30;;;22.30;65.90;;;;;;8368090;28;20029;-80
2022/08/10 18:05:55;;;;;;;3.78;1.35;;;22.20;65.90;;;;;;8385028;28;20028;-79
2022/08/10 18:09:56;;;;;;;1.30;1.10;;;22.00;67.20;;;;;;8368993;28;20031;-79
2022/08/10 18:14:05;;;;;;;4.50;1.20;;;21.90;68.80;;;;;;8361361;28;20017;-79
2022/08/10 18:18:13;;;;;;;3.58;1.50;;;21.60;69.60;;;;;;8365821;28;20018;-79
2022/08/10 18:22:15;;;;;;;3.55;1.20;;;21.20;70.30;;;;;;8367762;28;20029;-79
2022/08/10 18:26:20;;;;;;;2.70;1.30;;;20.90;72.50;;;;;;8379994;28;20026;-79
2022/08/10 18:30:22;;;;;;;10.75;1.98;;;20.80;72.60;;;;;;8378536;28;20029;-79
2022/08/10 18:34:24;;;;;;;3.88;1.30;;;20.60;73.90;;;;;;8366147;28;20027;-79
2022/08/10 18:38:26;;;;;;;5.03;1.40;;;20.20;75.20;;;;;;8367908;28;20028;-79
2022/08/10 18:42:42;;;;;;;1.77;1.20;;;19.90;75.70;;;;;;8374031;28;20036;-80
2022/08/10 18:46:53;;;;;;;2.95;1.20;;;19.50;79.30;;;;;;8365951;28;20037;-79
2022/08/10 18:50:56;;;;;;;7.43;1.60;;;19.30;81.20;;;;;;8374076;28;20187;-79
2022/08/10 18:55:06;;;;;;;11.57;1.65;;;19.20;81.70;;;;;;8379642;28;20033;-79
2022/08/10 18:59:31;;;;;;;7.75;1.38;;;19.10;82.40;;;;;;8381795;28;20107;-79
2022/08/10 19:03:55;;;;;;;9.90;1.83;;;18.70;84.50;;;;;;8374442;28;20110;-79
2022/08/10 19:08:24;;;;;;;4.75;2.10;;;18.40;86.00;;;;;;8374980;28;20074;-79
2022/08/10 19:12:39;;;;;;;5.72;1.50;;;18.30;86.80;;;;;;8373845;28;20082;-79
2022/08/10 19:17:25;;;;;;;2.22;1.48;;;18.00;88.70;;;;;;8371796;28;20021;-79
2022/08/10 19:21:32;;;;;;;1.40;1.30;;;18.00;90.30;;;;;;8375587;28;20033;-79
2022/08/10 19:25:50;;;;;;;3.78;1.52;;;17.90;91.30;;;;;;8367785;28;20043;-79
2022/08/10 19:30:09;;;;;;;4.78;1.60;;;17.70;91.70;;;;;;8384916;28;20508;-79
2022/08/10 19:34:43;;;;;;;4.60;1.65;;;17.50;91.60;;;;;;8364847;28;20100;-79
2022/08/10 19:39:12;;;;;;;2.17;1.60;;;17.50;92.30;;;;;;8374615;28;20021;-79
2022/08/10 19:43:16;;;;;;;18.77;2.83;;;17.50;93.10;;;;;;8386210;28;20033;-79
2022/08/10 19:47:24;;;;;;;11.98;1.92;;;17.30;93.80;;;;;;8364598;28;20044;-79
2022/08/10 19:51:38;;;;;;;8.32;2.15;;;17.30;94.00;;;;;;8388524;28;20021;-79
2022/08/10 19:56:05;;;;;;;6.18;1.52;;;17.40;94.00;;;;;;8367124;28;20020;-79
2022/08/10 20:00:17;;;;;;;11.48;2.38;;;17.40;93.80;;;;;;8371949;28;20021;-81
2022/08/10 20:04:23;;;;;;;6.25;1.40;;;17.60;93.80;;;;;;8371116;28;20070;-81
2022/08/10 20:08:41;;;;;;;5.85;1.52;;;17.40;94.30;;;;;;8364206;28;20025;-81
2022/08/10 20:12:53;;;;;;;2.88;1.35;;;17.40;94.30;;;;;;8367505;28;20048;-81
2022/08/10 20:17:03;;;;;;;4.32;1.67;;;17.20;95.20;;;;;;8377999;28;20013;-81
2022/08/10 20:21:15;;;;;;;3.88;1.42;;;17.10;95.80;;;;;;8364338;28;20024;-81
2022/08/10 20:25:22;;;;;;;3.35;1.80;;;17.10;95.70;;;;;;8368534;28;20115;-80
2022/08/10 20:29:49;;;;;;;3.70;1.80;;;17.10;96.00;;;;;;8365235;28;20029;-81
2022/08/10 20:34:16;;;;;;;3.42;1.67;;;17.00;96.60;;;;;;8363146;28;20013;-81
2022/08/10 20:38:21;;;;;;;3.88;1.67;;;16.70;97.20;;;;;;8370571;28;20280;-80
2022/08/10 20:42:44;;;;;;;12.25;2.17;;;16.80;97.20;;;;;;8360268;28;20040;-81
2022/08/10 20:47:10;;;;;;;6.35;1.70;;;16.90;97.50;;;;;;8366109;28;20063;-81
2022/08/10 20:51:18;;;;;;;3.20;1.30;;;16.80;97.90;;;;;;8375997;28;20485;-81
2022/08/10 20:55:21;;;;;;;7.95;1.90;;;16.80;97.60;;;;;;8378833;28;20111;-81
2022/08/10 20:59:46;;;;;;;4.65;1.60;;;16.80;98.40;;;;;;8368955;28;20029;-81
2022/08/10 21:04:06;;;;;;;2.58;1.55;;;16.60;98.90;;;;;;8379148;28;20492;-81
2022/08/10 21:08:37;;;;;;;3.78;1.45;;;16.60;99.60;;;;;;8362672;28;20151;-81
2022/08/10 21:13:06;;;;;;;3.15;1.35;;;16.50;99.90;;;;;;8369059;28;20020;-81
2022/08/10 21:17:40;;;;;;;4.82;2.08;;;16.50;99.90;;;;;;8370247;28;20613;-80
2022/08/10 21:22:14;;;;;;;3.47;1.73;;;16.50;99.90;;;;;;8369909;28;20024;-81
2022/08/10 22:52:29;;;;;;;3.97;2.20;;;14.60;99.90;;;;;;8374925;28;20531;-81
2022/08/10 23:01:03;;;;;;;3.22;2.25;;;14.60;99.90;;;;;;8380337;28;20098;-81
2022/08/10 23:05:11;;;;;;;5.32;2.28;;;14.60;99.90;;;;;;8373253;28;20020;-81
2022/08/10 23:09:12;;;;;;;3.88;2.45;;;14.60;99.90;;;;;;8365927;28;20025;-81
2022/08/10 23:13:21;;;;;;;4.40;2.20;;;14.60;99.90;;;;;;8379597;28;20024;-80
2022/08/10 23:21:57;;;;;;;3.28;2.10;;;14.80;99.90;;;;;;8372792;28;20507;-81
2022/08/10 23:26:00;;;;;;;2.92;2.22;;;14.90;99.90;;;;;;8375598;28;20025;-81